This is the latest recevied weather packets stored in our database for station/object N4CRH-13. If no packets are shown the sender has not sent any weather packets the latest 10 day(s).
| Time | Temp. | Humidity | Pressure | Rain* | Wind** | Luminosity | Snow |
|---|---|---|---|---|---|---|---|
| 1777689101 | 1.67° C | 61% | 1298.7 hPa | 0 mm | - | 0 W/m² | - |
| 1777688798 | 2.78° C | 61% | 1298.8 hPa | 0 mm | - | 0 W/m² | - |
| 1777673641 | 11.11° C | 40% | 1297.4 hPa | 0 mm | - | 470 W/m² | - |
| 1777672429 | 11.11° C | 38% | 1297.3 hPa | 0 mm | - | 542 W/m² | - |
| 1777671820 | 10° C | 41% | 1297.5 hPa | 0 mm | - | 631 W/m² | - |
| 1777670605 | 11.11° C | 40% | 1297.8 hPa | 0 mm | - | 682 W/m² | - |
| 1777669697 | 10.56° C | 37% | 1297.9 hPa | 0 mm | - | 336 W/m² | - |
| 1777669394 | 11.11° C | 43% | 1298 hPa | 0 mm | - | 587 W/m² | - |
| 1777668787 | 10.56° C | 45% | 1297.9 hPa | 0 mm | - | 230 W/m² | - |
| 1777667876 | 11.11° C | 45% | 1298.2 hPa | 0 mm | - | 701 W/m² | - |
| 1777667271 | 11.11° C | 48% | 1298.2 hPa | 0 mm | - | 701 W/m² | - |
| 1777666967 | 10.56° C | 52% | 1298.2 hPa | 0 mm | - | 719 W/m² | - |
| 1777666361 | 8.33° C | 53% | 1298.4 hPa | 0 mm | - | 265 W/m² | - |
| 1777666058 | 8.33° C | 51% | 1298.6 hPa | 0 mm | - | 372 W/m² | - |
| 1777665452 | 8.33° C | 50% | 1298.2 hPa | 0 mm | - | 398 W/m² | - |
| 1777665149 | 8.33° C | 48% | 1298.5 hPa | 0 mm | - | 212 W/m² | - |
| 1777664541 | 9.44° C | 54% | 1298.4 hPa | 0 mm | - | 323 W/m² | - |
| 1777664238 | 8.89° C | 54% | 1298.5 hPa | 0 mm | - | 906 W/m² | - |
| 1777663633 | 9.44° C | 50% | 1298.5 hPa | 0 mm | - | 843 W/m² | - |
| 1777663330 | 9.44° C | 53% | 1298.6 hPa | 0 mm | - | 290 W/m² | - |
| 1777663027 | 8.89° C | 49% | 1298.8 hPa | 0 mm | - | 426 W/m² | - |
| 1777662420 | 8.33° C | 50% | 1298.6 hPa | 0 mm | - | 501 W/m² | - |
| 1777662116 | 10° C | 53% | 1298.7 hPa | 0 mm | - | 524 W/m² | - |
| 1777661812 | 9.44° C | 51% | 1298.8 hPa | 0 mm | - | 550 W/m² | - |
| 1777660596 | 8.33° C | 53% | 1298.7 hPa | 0 mm | - | 343 W/m² | - |
* Rain latest hour (hover to see other rain measurements)
** Current wind speed in m/s (hover to see current wind gust speed)